sensor_id;sensor_type;location;lat;lon;timestamp;P1;durP1;ratioP1;P2;durP2;ratioP2
23451;SDS011;11898;51.130;6.780;2023-04-23T00:02:11;0.40;;;0.40;;
23451;SDS011;11898;51.130;6.780;2023-04-23T00:04:45;0.20;;;0.20;;
23451;SDS011;11898;51.130;6.780;2023-04-23T00:07:12;0.20;;;0.20;;
23451;SDS011;11898;51.130;6.780;2023-04-23T00:09:42;0.30;;;0.30;;
23451;SDS011;11898;51.130;6.780;2023-04-23T00:12:10;0.33;;;0.30;;
23451;SDS011;11898;51.130;6.780;2023-04-23T00:17:41;0.20;;;0.20;;
23451;SDS011;11898;51.130;6.780;2023-04-23T00:20:10;0.30;;;0.30;;
23451;SDS011;11898;51.130;6.780;2023-04-23T00:22:41;0.40;;;0.40;;
23451;SDS011;11898;51.130;6.780;2023-04-23T00:25:10;0.20;;;0.20;;
23451;SDS011;11898;51.130;6.780;2023-04-23T00:27:38;1.30;;;0.70;;
23451;SDS011;11898;51.130;6.780;2023-04-23T00:30:07;0.45;;;0.35;;
23451;SDS011;11898;51.130;6.780;2023-04-23T00:32:42;0.50;;;0.50;;
23451;SDS011;11898;51.130;6.780;2023-04-23T00:35:17;0.30;;;0.30;;
23451;SDS011;11898;51.130;6.780;2023-04-23T00:40:40;0.25;;;0.25;;
23451;SDS011;11898;51.130;6.780;2023-04-23T00:43:12;0.30;;;0.30;;
23451;SDS011;11898;51.130;6.780;2023-04-23T00:45:47;0.30;;;0.30;;
23451;SDS011;11898;51.130;6.780;2023-04-23T00:48:19;0.25;;;0.25;;
23451;SDS011;11898;51.130;6.780;2023-04-23T00:50:55;0.10;;;0.10;;
23451;SDS011;11898;51.130;6.780;2023-04-23T00:53:39;0.15;;;0.15;;
23451;SDS011;11898;51.130;6.780;2023-04-23T00:56:09;0.20;;;0.20;;
23451;SDS011;11898;51.130;6.780;2023-04-23T00:58:50;0.10;;;0.10;;
23451;SDS011;11898;51.130;6.780;2023-04-23T01:01:24;0.15;;;0.15;;
23451;SDS011;11898;51.130;6.780;2023-04-23T01:03:53;0.30;;;0.30;;
23451;SDS011;11898;51.130;6.780;2023-04-23T01:06:23;0.25;;;0.25;;
23451;SDS011;11898;51.130;6.780;2023-04-23T01:08:54;0.42;;;0.30;;
23451;SDS011;11898;51.130;6.780;2023-04-23T01:11:23;0.13;;;0.13;;
23451;SDS011;11898;51.130;6.780;2023-04-23T01:14:12;0.30;;;0.30;;
23451;SDS011;11898;51.130;6.780;2023-04-23T01:16:41;0.10;;;0.10;;
23451;SDS011;11898;51.130;6.780;2023-04-23T01:19:18;0.40;;;0.40;;
23451;SDS011;11898;51.130;6.780;2023-04-23T01:21:47;0.20;;;0.20;;
23451;SDS011;11898;51.130;6.780;2023-04-23T01:24:19;0.80;;;0.47;;
23451;SDS011;11898;51.130;6.780;2023-04-23T01:26:48;2.40;;;0.40;;
23451;SDS011;11898;51.130;6.780;2023-04-23T01:29:23;0.60;;;0.60;;
23451;SDS011;11898;51.130;6.780;2023-04-23T01:31:54;0.20;;;0.20;;
23451;SDS011;11898;51.130;6.780;2023-04-23T01:34:23;0.35;;;0.25;;
23451;SDS011;11898;51.130;6.780;2023-04-23T01:37:03;0.90;;;0.90;;
23451;SDS011;11898;51.130;6.780;2023-04-23T01:39:33;0.20;;;0.20;;
23451;SDS011;11898;51.130;6.780;2023-04-23T01:42:05;0.55;;;0.25;;
23451;SDS011;11898;51.130;6.780;2023-04-23T01:44:40;0.20;;;0.20;;
23451;SDS011;11898;51.130;6.780;2023-04-23T01:47:10;0.10;;;0.10;;
23451;SDS011;11898;51.130;6.780;2023-04-23T01:49:41;0.40;;;0.40;;
23451;SDS011;11898;51.130;6.780;2023-04-23T01:52:14;0.40;;;0.40;;
23451;SDS011;11898;51.130;6.780;2023-04-23T01:54:54;0.17;;;0.17;;
23451;SDS011;11898;51.130;6.780;2023-04-23T01:57:41;1.17;;;0.88;;
23451;SDS011;11898;51.130;6.780;2023-04-23T02:03:23;0.33;;;0.33;;
23451;SDS011;11898;51.130;6.780;2023-04-23T02:06:12;0.68;;;0.68;;
23451;SDS011;11898;51.130;6.780;2023-04-23T02:09:00;0.50;;;0.50;;
23451;SDS011;11898;51.130;6.780;2023-04-23T02:11:37;0.75;;;0.75;;
23451;SDS011;11898;51.130;6.780;2023-04-23T02:14:27;0.88;;;0.88;;
23451;SDS011;11898;51.130;6.780;2023-04-23T02:16:58;0.28;;;0.28;;
23451;SDS011;11898;51.130;6.780;2023-04-23T02:19:46;1.45;;;1.40;;
23451;SDS011;11898;51.130;6.780;2023-04-23T02:22:16;1.00;;;1.00;;
23451;SDS011;11898;51.130;6.780;2023-04-23T02:24:48;0.37;;;0.37;;
23451;SDS011;11898;51.130;6.780;2023-04-23T02:27:19;0.45;;;0.42;;
23451;SDS011;11898;51.130;6.780;2023-04-23T02:29:54;0.75;;;0.60;;
23451;SDS011;11898;51.130;6.780;2023-04-23T02:32:27;0.40;;;0.40;;
23451;SDS011;11898;51.130;6.780;2023-04-23T02:35:00;1.20;;;1.17;;
23451;SDS011;11898;51.130;6.780;2023-04-23T02:37:51;1.32;;;0.95;;
23451;SDS011;11898;51.130;6.780;2023-04-23T02:40:41;0.40;;;0.40;;
23451;SDS011;11898;51.130;6.780;2023-04-23T02:43:29;0.70;;;0.70;;
23451;SDS011;11898;51.130;6.780;2023-04-23T02:46:16;0.82;;;0.50;;
23451;SDS011;11898;51.130;6.780;2023-04-23T02:48:45;1.65;;;1.05;;
23451;SDS011;11898;51.130;6.780;2023-04-23T02:51:13;0.65;;;0.65;;
23451;SDS011;11898;51.130;6.780;2023-04-23T02:53:42;0.55;;;0.55;;
23451;SDS011;11898;51.130;6.780;2023-04-23T02:56:10;0.60;;;0.50;;
23451;SDS011;11898;51.130;6.780;2023-04-23T02:58:38;0.95;;;0.95;;
23451;SDS011;11898;51.130;6.780;2023-04-23T03:01:08;0.90;;;0.90;;
23451;SDS011;11898;51.130;6.780;2023-04-23T03:03:36;0.45;;;0.45;;
23451;SDS011;11898;51.130;6.780;2023-04-23T03:06:05;0.30;;;0.30;;
23451;SDS011;11898;51.130;6.780;2023-04-23T03:08:35;0.93;;;0.93;;
23451;SDS011;11898;51.130;6.780;2023-04-23T03:11:08;0.68;;;0.68;;
23451;SDS011;11898;51.130;6.780;2023-04-23T03:13:48;5.03;;;0.75;;
23451;SDS011;11898;51.130;6.780;2023-04-23T03:16:37;0.40;;;0.40;;
23451;SDS011;11898;51.130;6.780;2023-04-23T03:19:12;1.00;;;1.00;;
23451;SDS011;11898;51.130;6.780;2023-04-23T03:21:56;1.10;;;1.00;;
23451;SDS011;11898;51.130;6.780;2023-04-23T03:24:33;0.75;;;0.75;;
23451;SDS011;11898;51.130;6.780;2023-04-23T03:27:04;1.80;;;1.37;;
23451;SDS011;11898;51.130;6.780;2023-04-23T03:29:39;2.50;;;0.78;;
23451;SDS011;11898;51.130;6.780;2023-04-23T03:32:42;1.45;;;1.35;;
23451;SDS011;11898;51.130;6.780;2023-04-23T03:35:11;1.75;;;1.65;;
23451;SDS011;11898;51.130;6.780;2023-04-23T03:37:39;2.85;;;1.87;;
23451;SDS011;11898;51.130;6.780;2023-04-23T03:40:08;0.72;;;0.72;;
23451;SDS011;11898;51.130;6.780;2023-04-23T03:42:36;2.02;;;1.57;;
23451;SDS011;11898;51.130;6.780;2023-04-23T03:45:05;0.98;;;0.98;;
23451;SDS011;11898;51.130;6.780;2023-04-23T03:47:33;0.62;;;0.62;;
23451;SDS011;11898;51.130;6.780;2023-04-23T03:50:03;0.53;;;0.53;;
23451;SDS011;11898;51.130;6.780;2023-04-23T03:52:33;1.00;;;1.00;;
23451;SDS011;11898;51.130;6.780;2023-04-23T03:57:50;1.35;;;0.90;;
23451;SDS011;11898;51.130;6.780;2023-04-23T04:00:18;2.30;;;2.05;;
23451;SDS011;11898;51.130;6.780;2023-04-23T04:02:47;1.42;;;1.42;;
23451;SDS011;11898;51.130;6.780;2023-04-23T04:05:15;1.05;;;0.70;;
23451;SDS011;11898;51.130;6.780;2023-04-23T04:07:44;1.55;;;1.45;;
23451;SDS011;11898;51.130;6.780;2023-04-23T04:10:13;1.00;;;0.93;;
23451;SDS011;11898;51.130;6.780;2023-04-23T04:12:41;1.67;;;1.57;;
23451;SDS011;11898;51.130;6.780;2023-04-23T04:15:11;1.55;;;1.45;;
23451;SDS011;11898;51.130;6.780;2023-04-23T04:17:39;2.27;;;2.08;;
23451;SDS011;11898;51.130;6.780;2023-04-23T04:20:08;2.08;;;1.98;;
23451;SDS011;11898;51.130;6.780;2023-04-23T04:22:37;0.72;;;0.72;;
23451;SDS011;11898;51.130;6.780;2023-04-23T04:25:05;0.82;;;0.78;;
23451;SDS011;11898;51.130;6.780;2023-04-23T04:27:34;1.05;;;1.05;;
23451;SDS011;11898;51.130;6.780;2023-04-23T04:30:04;1.67;;;1.57;;
23451;SDS011;11898;51.130;6.780;2023-04-23T04:32:33;0.65;;;0.65;;
23451;SDS011;11898;51.130;6.780;2023-04-23T04:35:05;1.82;;;1.72;;
23451;SDS011;11898;51.130;6.780;2023-04-23T04:37:35;1.87;;;1.77;;
23451;SDS011;11898;51.130;6.780;2023-04-23T04:40:04;1.55;;;1.47;;
23451;SDS011;11898;51.130;6.780;2023-04-23T04:42:34;1.70;;;1.60;;
23451;SDS011;11898;51.130;6.780;2023-04-23T04:45:03;1.60;;;1.50;;
23451;SDS011;11898;51.130;6.780;2023-04-23T04:47:32;2.77;;;1.67;;
23451;SDS011;11898;51.130;6.780;2023-04-23T04:50:01;0.55;;;0.47;;
23451;SDS011;11898;51.130;6.780;2023-04-23T04:52:30;1.05;;;0.95;;
23451;SDS011;11898;51.130;6.780;2023-04-23T04:55:01;0.82;;;0.82;;
23451;SDS011;11898;51.130;6.780;2023-04-23T04:57:31;1.45;;;1.37;;
23451;SDS011;11898;51.130;6.780;2023-04-23T05:00:20;2.52;;;1.47;;
23451;SDS011;11898;51.130;6.780;2023-04-23T05:02:53;1.95;;;0.72;;
23451;SDS011;11898;51.130;6.780;2023-04-23T05:05:22;1.55;;;0.62;;
23451;SDS011;11898;51.130;6.780;2023-04-23T05:07:51;0.65;;;0.65;;
23451;SDS011;11898;51.130;6.780;2023-04-23T05:10:21;1.42;;;1.32;;
23451;SDS011;11898;51.130;6.780;2023-04-23T05:12:50;1.25;;;1.25;;
23451;SDS011;11898;51.130;6.780;2023-04-23T05:15:18;1.40;;;1.20;;
23451;SDS011;11898;51.130;6.780;2023-04-23T05:17:47;1.67;;;1.57;;
23451;SDS011;11898;51.130;6.780;2023-04-23T05:20:17;1.55;;;1.45;;
23451;SDS011;11898;51.130;6.780;2023-04-23T05:22:45;1.22;;;1.22;;
23451;SDS011;11898;51.130;6.780;2023-04-23T05:25:14;1.27;;;1.20;;
23451;SDS011;11898;51.130;6.780;2023-04-23T05:27:42;3.35;;;1.95;;
23451;SDS011;11898;51.130;6.780;2023-04-23T05:30:11;1.27;;;1.17;;
23451;SDS011;11898;51.130;6.780;2023-04-23T05:32:39;1.47;;;1.40;;
23451;SDS011;11898;51.130;6.780;2023-04-23T05:35:08;2.40;;;1.57;;
23451;SDS011;11898;51.130;6.780;2023-04-23T05:37:36;2.40;;;1.70;;
23451;SDS011;11898;51.130;6.780;2023-04-23T05:40:05;1.90;;;1.82;;
23451;SDS011;11898;51.130;6.780;2023-04-23T05:42:54;2.42;;;1.90;;
23451;SDS011;11898;51.130;6.780;2023-04-23T05:45:27;2.17;;;2.00;;
23451;SDS011;11898;51.130;6.780;2023-04-23T05:47:56;1.77;;;1.67;;
23451;SDS011;11898;51.130;6.780;2023-04-23T05:50:25;1.85;;;1.75;;
23451;SDS011;11898;51.130;6.780;2023-04-23T05:52:54;2.27;;;1.87;;
23451;SDS011;11898;51.130;6.780;2023-04-23T05:55:25;2.65;;;1.65;;
23451;SDS011;11898;51.130;6.780;2023-04-23T06:00:52;1.80;;;1.70;;
23451;SDS011;11898;51.130;6.780;2023-04-23T06:03:24;2.90;;;2.22;;
23451;SDS011;11898;51.130;6.780;2023-04-23T06:05:53;0.70;;;0.70;;
23451;SDS011;11898;51.130;6.780;2023-04-23T06:08:22;1.00;;;1.00;;
23451;SDS011;11898;51.130;6.780;2023-04-23T06:10:51;3.33;;;1.75;;
23451;SDS011;11898;51.130;6.780;2023-04-23T06:13:22;0.90;;;0.90;;
23451;SDS011;11898;51.130;6.780;2023-04-23T06:15:50;1.42;;;1.35;;
23451;SDS011;11898;51.130;6.780;2023-04-23T06:18:19;1.22;;;1.22;;
23451;SDS011;11898;51.130;6.780;2023-04-23T06:20:47;2.47;;;0.93;;
23451;SDS011;11898;51.130;6.780;2023-04-23T06:23:18;1.50;;;1.50;;
23451;SDS011;11898;51.130;6.780;2023-04-23T06:25:46;2.08;;;1.20;;
23451;SDS011;11898;51.130;6.780;2023-04-23T06:28:14;0.88;;;0.88;;
23451;SDS011;11898;51.130;6.780;2023-04-23T06:30:43;0.85;;;0.85;;
23451;SDS011;11898;51.130;6.780;2023-04-23T06:33:11;0.40;;;0.40;;
23451;SDS011;11898;51.130;6.780;2023-04-23T06:35:40;0.62;;;0.62;;
23451;SDS011;11898;51.130;6.780;2023-04-23T06:38:09;0.40;;;0.40;;
23451;SDS011;11898;51.130;6.780;2023-04-23T06:40:37;0.72;;;0.72;;
23451;SDS011;11898;51.130;6.780;2023-04-23T06:43:06;1.27;;;1.17;;
23451;SDS011;11898;51.130;6.780;2023-04-23T06:45:36;1.17;;;0.65;;
23451;SDS011;11898;51.130;6.780;2023-04-23T06:48:04;0.50;;;0.50;;
23451;SDS011;11898;51.130;6.780;2023-04-23T06:50:33;0.20;;;0.20;;
23451;SDS011;11898;51.130;6.780;2023-04-23T06:53:01;0.53;;;0.53;;
23451;SDS011;11898;51.130;6.780;2023-04-23T06:55:30;0.65;;;0.65;;
23451;SDS011;11898;51.130;6.780;2023-04-23T06:57:59;0.53;;;0.53;;
23451;SDS011;11898;51.130;6.780;2023-04-23T07:00:27;0.68;;;0.68;;
23451;SDS011;11898;51.130;6.780;2023-04-23T07:02:55;1.72;;;1.60;;
23451;SDS011;11898;51.130;6.780;2023-04-23T07:05:29;1.45;;;1.35;;
23451;SDS011;11898;51.130;6.780;2023-04-23T07:07:54;0.85;;;0.85;;
23451;SDS011;11898;51.130;6.780;2023-04-23T07:10:23;0.17;;;0.17;;
23451;SDS011;11898;51.130;6.780;2023-04-23T07:13:03;0.68;;;0.50;;
23451;SDS011;11898;51.130;6.780;2023-04-23T07:15:28;0.20;;;0.20;;
23451;SDS011;11898;51.130;6.780;2023-04-23T07:17:56;0.40;;;0.40;;
23451;SDS011;11898;51.130;6.780;2023-04-23T07:20:25;1.17;;;1.07;;
23451;SDS011;11898;51.130;6.780;2023-04-23T07:22:54;1.47;;;0.50;;
23451;SDS011;11898;51.130;6.780;2023-04-23T07:25:27;1.00;;;0.90;;
23451;SDS011;11898;51.130;6.780;2023-04-23T07:27:53;0.78;;;0.78;;
23451;SDS011;11898;51.130;6.780;2023-04-23T07:30:23;0.65;;;0.65;;
23451;SDS011;11898;51.130;6.780;2023-04-23T07:32:51;0.40;;;0.40;;
23451;SDS011;11898;51.130;6.780;2023-04-23T07:35:20;0.45;;;0.45;;
23451;SDS011;11898;51.130;6.780;2023-04-23T07:37:49;1.15;;;0.37;;
23451;SDS011;11898;51.130;6.780;2023-04-23T07:40:20;0.42;;;0.33;;
23451;SDS011;11898;51.130;6.780;2023-04-23T07:42:48;0.93;;;0.75;;
23451;SDS011;11898;51.130;6.780;2023-04-23T07:45:18;0.53;;;0.50;;
23451;SDS011;11898;51.130;6.780;2023-04-23T07:47:48;0.80;;;0.42;;
23451;SDS011;11898;51.130;6.780;2023-04-23T07:50:17;0.20;;;0.20;;
23451;SDS011;11898;51.130;6.780;2023-04-23T07:52:45;0.47;;;0.42;;
23451;SDS011;11898;51.130;6.780;2023-04-23T07:55:15;0.45;;;0.45;;
23451;SDS011;11898;51.130;6.780;2023-04-23T07:57:46;0.60;;;0.35;;
23451;SDS011;11898;51.130;6.780;2023-04-23T08:00:17;2.47;;;0.82;;
23451;SDS011;11898;51.130;6.780;2023-04-23T08:02:46;0.60;;;0.60;;
23451;SDS011;11898;51.130;6.780;2023-04-23T08:05:16;0.40;;;0.40;;
23451;SDS011;11898;51.130;6.780;2023-04-23T08:08:11;1.07;;;0.70;;
23451;SDS011;11898;51.130;6.780;2023-04-23T08:11:01;1.12;;;0.65;;
23451;SDS011;11898;51.130;6.780;2023-04-23T08:13:52;2.47;;;0.72;;
23451;SDS011;11898;51.130;6.780;2023-04-23T08:19:39;0.10;;;0.10;;
23451;SDS011;11898;51.130;6.780;2023-04-23T08:22:29;0.62;;;0.55;;
23451;SDS011;11898;51.130;6.780;2023-04-23T08:25:22;0.10;;;0.10;;
23451;SDS011;11898;51.130;6.780;2023-04-23T08:28:11;0.62;;;0.62;;
23451;SDS011;11898;51.130;6.780;2023-04-23T08:30:54;0.30;;;0.30;;
23451;SDS011;11898;51.130;6.780;2023-04-23T08:33:54;0.53;;;0.53;;
23451;SDS011;11898;51.130;6.780;2023-04-23T08:39:56;2.95;;;0.50;;
23451;SDS011;11898;51.130;6.780;2023-04-23T08:43:00;1.05;;;0.10;;
23451;SDS011;11898;51.130;6.780;2023-04-23T08:48:36;0.40;;;0.40;;
23451;SDS011;11898;51.130;6.780;2023-04-23T08:51:10;1.00;;;0.40;;
23451;SDS011;11898;51.130;6.780;2023-04-23T08:53:43;0.57;;;0.55;;
23451;SDS011;11898;51.130;6.780;2023-04-23T08:56:12;0.10;;;0.10;;
23451;SDS011;11898;51.130;6.780;2023-04-23T08:58:47;0.72;;;0.72;;
23451;SDS011;11898;51.130;6.780;2023-04-23T09:01:22;0.20;;;0.20;;
23451;SDS011;11898;51.130;6.780;2023-04-23T09:03:51;1.00;;;0.60;;
23451;SDS011;11898;51.130;6.780;2023-04-23T09:06:45;1.27;;;0.62;;
23451;SDS011;11898;51.130;6.780;2023-04-23T09:09:20;0.35;;;0.35;;
23451;SDS011;11898;51.130;6.780;2023-04-23T09:12:14;1.15;;;1.05;;
23451;SDS011;11898;51.130;6.780;2023-04-23T09:15:04;0.30;;;0.30;;
23451;SDS011;11898;51.130;6.780;2023-04-23T09:18:06;0.60;;;0.60;;
23451;SDS011;11898;51.130;6.780;2023-04-23T09:20:42;0.40;;;0.40;;
23451;SDS011;11898;51.130;6.780;2023-04-23T09:23:39;0.37;;;0.37;;
23451;SDS011;11898;51.130;6.780;2023-04-23T09:26:29;0.17;;;0.17;;
23451;SDS011;11898;51.130;6.780;2023-04-23T09:29:22;0.23;;;0.23;;
23451;SDS011;11898;51.130;6.780;2023-04-23T09:35:32;0.20;;;0.20;;
23451;SDS011;11898;51.130;6.780;2023-04-23T09:38:28;0.03;;;0.03;;
23451;SDS011;11898;51.130;6.780;2023-04-23T09:47:23;0.20;;;0.20;;
23451;SDS011;11898;51.130;6.780;2023-04-23T09:50:00;0.37;;;0.37;;
23451;SDS011;11898;51.130;6.780;2023-04-23T09:56:05;0.30;;;0.30;;
23451;SDS011;11898;51.130;6.780;2023-04-23T09:58:44;0.65;;;0.47;;
23451;SDS011;11898;51.130;6.780;2023-04-23T10:01:34;0.37;;;0.37;;
23451;SDS011;11898;51.130;6.780;2023-04-23T10:04:07;0.20;;;0.20;;
23451;SDS011;11898;51.130;6.780;2023-04-23T10:06:55;0.13;;;0.13;;
23451;SDS011;11898;51.130;6.780;2023-04-23T10:09:27;0.28;;;0.28;;
23451;SDS011;11898;51.130;6.780;2023-04-23T10:11:58;0.62;;;0.62;;
23451;SDS011;11898;51.130;6.780;2023-04-23T10:14:47;0.20;;;0.20;;
23451;SDS011;11898;51.130;6.780;2023-04-23T10:17:36;0.30;;;0.30;;
23451;SDS011;11898;51.130;6.780;2023-04-23T10:20:09;0.45;;;0.25;;
23451;SDS011;11898;51.130;6.780;2023-04-23T10:22:48;0.80;;;0.55;;
23451;SDS011;11898;51.130;6.780;2023-04-23T10:25:36;0.20;;;0.20;;
23451;SDS011;11898;51.130;6.780;2023-04-23T10:28:12;0.50;;;0.20;;
23451;SDS011;11898;51.130;6.780;2023-04-23T10:30:45;0.10;;;0.10;;
23451;SDS011;11898;51.130;6.780;2023-04-23T10:33:13;0.20;;;0.20;;
23451;SDS011;11898;51.130;6.780;2023-04-23T10:35:47;0.00;;;0.00;;
23451;SDS011;11898;51.130;6.780;2023-04-23T10:38:17;0.10;;;0.00;;
23451;SDS011;11898;51.130;6.780;2023-04-23T10:40:52;0.10;;;0.10;;
23451;SDS011;11898;51.130;6.780;2023-04-23T10:43:22;0.05;;;0.05;;
23451;SDS011;11898;51.130;6.780;2023-04-23T10:45:52;0.13;;;0.13;;
23451;SDS011;11898;51.130;6.780;2023-04-23T10:48:21;0.10;;;0.10;;
23451;SDS011;11898;51.130;6.780;2023-04-23T10:50:56;0.08;;;0.05;;
23451;SDS011;11898;51.130;6.780;2023-04-23T10:53:24;0.00;;;0.00;;
23451;SDS011;11898;51.130;6.780;2023-04-23T10:56:05;0.03;;;0.03;;
23451;SDS011;11898;51.130;6.780;2023-04-23T10:58:47;0.00;;;0.00;;
23451;SDS011;11898;51.130;6.780;2023-04-23T11:01:18;0.00;;;0.00;;
23451;SDS011;11898;51.130;6.780;2023-04-23T11:03:54;0.10;;;0.10;;
23451;SDS011;11898;51.130;6.780;2023-04-23T11:09:29;0.00;;;0.00;;
23451;SDS011;11898;51.130;6.780;2023-04-23T11:11:58;0.10;;;0.10;;
23451;SDS011;11898;51.130;6.780;2023-04-23T11:14:34;0.20;;;0.17;;
23451;SDS011;11898;51.130;6.780;2023-04-23T11:17:03;0.13;;;0.13;;
23451;SDS011;11898;51.130;6.780;2023-04-23T11:19:34;0.10;;;0.10;;
23451;SDS011;11898;51.130;6.780;2023-04-23T11:22:06;0.00;;;0.00;;
23451;SDS011;11898;51.130;6.780;2023-04-23T11:27:12;0.10;;;0.10;;
23451;SDS011;11898;51.130;6.780;2023-04-23T11:29:40;0.62;;;0.20;;
23451;SDS011;11898;51.130;6.780;2023-04-23T11:32:10;0.10;;;0.10;;
23451;SDS011;11898;51.130;6.780;2023-04-23T11:34:40;0.50;;;0.50;;
23451;SDS011;11898;51.130;6.780;2023-04-23T11:37:10;0.10;;;0.10;;
23451;SDS011;11898;51.130;6.780;2023-04-23T11:39:39;0.17;;;0.17;;
23451;SDS011;11898;51.130;6.780;2023-04-23T11:42:09;0.68;;;0.68;;
23451;SDS011;11898;51.130;6.780;2023-04-23T11:44:38;0.00;;;0.00;;
23451;SDS011;11898;51.130;6.780;2023-04-23T11:47:07;0.00;;;0.00;;
23451;SDS011;11898;51.130;6.780;2023-04-23T11:49:37;0.17;;;0.17;;
23451;SDS011;11898;51.130;6.780;2023-04-23T11:52:07;0.15;;;0.15;;
23451;SDS011;11898;51.130;6.780;2023-04-23T11:54:35;0.00;;;0.00;;
23451;SDS011;11898;51.130;6.780;2023-04-23T11:57:03;0.53;;;0.40;;
23451;SDS011;11898;51.130;6.780;2023-04-23T11:59:33;0.00;;;0.00;;
23451;SDS011;11898;51.130;6.780;2023-04-23T12:02:01;0.08;;;0.08;;
23451;SDS011;11898;51.130;6.780;2023-04-23T12:04:30;0.10;;;0.10;;
23451;SDS011;11898;51.130;6.780;2023-04-23T12:06:59;0.00;;;0.00;;
23451;SDS011;11898;51.130;6.780;2023-04-23T12:09:29;0.03;;;0.03;;
23451;SDS011;11898;51.130;6.780;2023-04-23T12:11:57;0.30;;;0.30;;
23451;SDS011;11898;51.130;6.780;2023-04-23T12:14:27;0.00;;;0.00;;
23451;SDS011;11898;51.130;6.780;2023-04-23T12:16:56;0.00;;;0.00;;
23451;SDS011;11898;51.130;6.780;2023-04-23T12:19:28;0.20;;;0.20;;
23451;SDS011;11898;51.130;6.780;2023-04-23T12:22:01;0.00;;;0.00;;
23451;SDS011;11898;51.130;6.780;2023-04-23T12:24:30;0.00;;;0.00;;
23451;SDS011;11898;51.130;6.780;2023-04-23T12:26:59;0.10;;;0.10;;
23451;SDS011;11898;51.130;6.780;2023-04-23T12:29:29;0.23;;;0.10;;
23451;SDS011;11898;51.130;6.780;2023-04-23T12:31:58;0.28;;;0.20;;
23451;SDS011;11898;51.130;6.780;2023-04-23T12:34:27;0.40;;;0.35;;
23451;SDS011;11898;51.130;6.780;2023-04-23T12:36:55;0.10;;;0.10;;
23451;SDS011;11898;51.130;6.780;2023-04-23T12:41:54;0.00;;;0.00;;
23451;SDS011;11898;51.130;6.780;2023-04-23T12:44:24;0.00;;;0.00;;
23451;SDS011;11898;51.130;6.780;2023-04-23T12:46:53;0.00;;;0.00;;
23451;SDS011;11898;51.130;6.780;2023-04-23T12:49:24;0.23;;;0.15;;
23451;SDS011;11898;51.130;6.780;2023-04-23T12:51:54;0.00;;;0.00;;
23451;SDS011;11898;51.130;6.780;2023-04-23T12:54:24;0.00;;;0.00;;
23451;SDS011;11898;51.130;6.780;2023-04-23T12:56:53;0.28;;;0.28;;
23451;SDS011;11898;51.130;6.780;2023-04-23T12:59:22;0.00;;;0.00;;
23451;SDS011;11898;51.130;6.780;2023-04-23T13:01:50;0.20;;;0.20;;
23451;SDS011;11898;51.130;6.780;2023-04-23T13:04:18;0.00;;;0.00;;
23451;SDS011;11898;51.130;6.780;2023-04-23T13:06:47;0.00;;;0.00;;
23451;SDS011;11898;51.130;6.780;2023-04-23T13:09:15;0.15;;;0.15;;
23451;SDS011;11898;51.130;6.780;2023-04-23T13:11:44;0.00;;;0.00;;
23451;SDS011;11898;51.130;6.780;2023-04-23T13:14:14;0.00;;;0.00;;
23451;SDS011;11898;51.130;6.780;2023-04-23T13:16:42;0.00;;;0.00;;
23451;SDS011;11898;51.130;6.780;2023-04-23T13:22:01;0.00;;;0.00;;
23451;SDS011;11898;51.130;6.780;2023-04-23T13:24:30;0.53;;;0.00;;
23451;SDS011;11898;51.130;6.780;2023-04-23T13:26:58;0.10;;;0.10;;
23451;SDS011;11898;51.130;6.780;2023-04-23T13:29:28;0.00;;;0.00;;
23451;SDS011;11898;51.130;6.780;2023-04-23T13:31:56;0.13;;;0.13;;
23451;SDS011;11898;51.130;6.780;2023-04-23T13:34:24;0.20;;;0.20;;
23451;SDS011;11898;51.130;6.780;2023-04-23T13:36:53;0.08;;;0.08;;
23451;SDS011;11898;51.130;6.780;2023-04-23T13:39:21;0.13;;;0.13;;
23451;SDS011;11898;51.130;6.780;2023-04-23T13:41:50;0.00;;;0.00;;
23451;SDS011;11898;51.130;6.780;2023-04-23T13:44:19;0.05;;;0.05;;
23451;SDS011;11898;51.130;6.780;2023-04-23T13:46:48;0.00;;;0.00;;
23451;SDS011;11898;51.130;6.780;2023-04-23T13:49:17;0.15;;;0.13;;
23451;SDS011;11898;51.130;6.780;2023-04-23T13:51:45;0.20;;;0.20;;
23451;SDS011;11898;51.130;6.780;2023-04-23T13:54:13;0.10;;;0.10;;
23451;SDS011;11898;51.130;6.780;2023-04-23T13:56:41;0.00;;;0.00;;
23451;SDS011;11898;51.130;6.780;2023-04-23T13:59:10;0.00;;;0.00;;
23451;SDS011;11898;51.130;6.780;2023-04-23T14:01:40;0.00;;;0.00;;
23451;SDS011;11898;51.130;6.780;2023-04-23T14:04:09;0.10;;;0.10;;
23451;SDS011;11898;51.130;6.780;2023-04-23T14:06:39;0.45;;;0.45;;
23451;SDS011;11898;51.130;6.780;2023-04-23T14:09:07;0.10;;;0.10;;
23451;SDS011;11898;51.130;6.780;2023-04-23T14:11:36;0.00;;;0.00;;
23451;SDS011;11898;51.130;6.780;2023-04-23T14:14:06;0.00;;;0.00;;
23451;SDS011;11898;51.130;6.780;2023-04-23T14:16:34;0.00;;;0.00;;
23451;SDS011;11898;51.130;6.780;2023-04-23T14:19:03;0.45;;;0.45;;
23451;SDS011;11898;51.130;6.780;2023-04-23T14:21:32;0.10;;;0.10;;
23451;SDS011;11898;51.130;6.780;2023-04-23T14:24:08;0.00;;;0.00;;
23451;SDS011;11898;51.130;6.780;2023-04-23T14:26:38;0.00;;;0.00;;
23451;SDS011;11898;51.130;6.780;2023-04-23T14:29:16;0.00;;;0.00;;
23451;SDS011;11898;51.130;6.780;2023-04-23T14:31:39;0.10;;;0.10;;
23451;SDS011;11898;51.130;6.780;2023-04-23T14:34:07;0.00;;;0.00;;
23451;SDS011;11898;51.130;6.780;2023-04-23T14:36:36;0.00;;;0.00;;
23451;SDS011;11898;51.130;6.780;2023-04-23T14:39:04;0.00;;;0.00;;
23451;SDS011;11898;51.130;6.780;2023-04-23T14:41:32;0.25;;;0.25;;
23451;SDS011;11898;51.130;6.780;2023-04-23T14:44:01;0.00;;;0.00;;
23451;SDS011;11898;51.130;6.780;2023-04-23T14:46:29;0.10;;;0.10;;
23451;SDS011;11898;51.130;6.780;2023-04-23T14:48:57;0.08;;;0.08;;
23451;SDS011;11898;51.130;6.780;2023-04-23T14:51:26;0.47;;;0.20;;
23451;SDS011;11898;51.130;6.780;2023-04-23T14:53:54;0.03;;;0.03;;
23451;SDS011;11898;51.130;6.780;2023-04-23T14:56:23;0.20;;;0.10;;
23451;SDS011;11898;51.130;6.780;2023-04-23T14:58:51;0.00;;;0.00;;
23451;SDS011;11898;51.130;6.780;2023-04-23T15:01:20;0.10;;;0.10;;
23451;SDS011;11898;51.130;6.780;2023-04-23T15:03:48;0.10;;;0.10;;
23451;SDS011;11898;51.130;6.780;2023-04-23T15:06:18;0.10;;;0.10;;
23451;SDS011;11898;51.130;6.780;2023-04-23T15:08:46;0.57;;;0.57;;
23451;SDS011;11898;51.130;6.780;2023-04-23T15:11:14;3.80;;;0.40;;
23451;SDS011;11898;51.130;6.780;2023-04-23T15:13:43;0.10;;;0.10;;
23451;SDS011;11898;51.130;6.780;2023-04-23T15:16:45;0.10;;;0.10;;
23451;SDS011;11898;51.130;6.780;2023-04-23T15:18:49;0.28;;;0.28;;
23451;SDS011;11898;51.130;6.780;2023-04-23T15:21:17;0.30;;;0.30;;
23451;SDS011;11898;51.130;6.780;2023-04-23T15:23:45;0.65;;;0.35;;
23451;SDS011;11898;51.130;6.780;2023-04-23T15:26:14;0.15;;;0.15;;
23451;SDS011;11898;51.130;6.780;2023-04-23T15:28:42;0.30;;;0.30;;
23451;SDS011;11898;51.130;6.780;2023-04-23T15:31:10;0.35;;;0.35;;
23451;SDS011;11898;51.130;6.780;2023-04-23T15:33:39;0.13;;;0.13;;
23451;SDS011;11898;51.130;6.780;2023-04-23T15:36:07;0.10;;;0.10;;
23451;SDS011;11898;51.130;6.780;2023-04-23T15:38:36;0.20;;;0.20;;
23451;SDS011;11898;51.130;6.780;2023-04-23T15:41:04;0.10;;;0.10;;
23451;SDS011;11898;51.130;6.780;2023-04-23T15:43:33;0.10;;;0.10;;
23451;SDS011;11898;51.130;6.780;2023-04-23T15:46:01;0.20;;;0.20;;
23451;SDS011;11898;51.130;6.780;2023-04-23T15:48:29;0.10;;;0.10;;
23451;SDS011;11898;51.130;6.780;2023-04-23T15:50:57;0.28;;;0.28;;
23451;SDS011;11898;51.130;6.780;2023-04-23T15:53:26;0.10;;;0.10;;
23451;SDS011;11898;51.130;6.780;2023-04-23T15:55:55;0.40;;;0.40;;
23451;SDS011;11898;51.130;6.780;2023-04-23T15:58:23;0.25;;;0.25;;
23451;SDS011;11898;51.130;6.780;2023-04-23T16:00:52;0.47;;;0.20;;
23451;SDS011;11898;51.130;6.780;2023-04-23T16:03:21;0.60;;;0.60;;
23451;SDS011;11898;51.130;6.780;2023-04-23T16:05:49;0.53;;;0.53;;
23451;SDS011;11898;51.130;6.780;2023-04-23T16:08:18;0.20;;;0.20;;